• Join FlightAware (Why Join?)
  • Login
  • US Flag 
08:29AM EDT


 

Airport Tracker/Info


-or-


 

Live Flight TrackerFlight Track Log ✈ SWA2955 ✈ 09-Apr-2013 ✈ KFLL - KMSY

Flight Track Log - Related Links

Times and Time Zones

All times are in EDT time to prevent confusion due to time zone crossing. See the SWA2955 flight status page for this flight to view local times or setup timezone preferences in your user account.

Time Position Orientation Groundspeed Altitude Reporting Facility
EDT Latitude Longitude Course Direction KTS MPH feet Rate Location/Type
10:35AM 26.0750 -80.1367 88° East 129 148 1,000  Level Miami Center
10:35AM 26.0756 -80.1136 88° East 158 182 1,800 1,980 Climbing Miami Center
10:37AM 26.0956 -80.0564 69° East 219 252 4,100 1,500 Climbing Miami Center
10:38AM 26.1597 -80.0789 343° North 280 322 5,100 420 Climbing Miami Center
10:39AM 26.2278 -80.1247 329° Northwest 265 305 5,000 1,200 Descending Miami Center
10:40AM 26.2742 -80.1956 306° West 286 329 7,800 2,280 Climbing Miami Center
10:41AM 26.2864 -80.2978 278° West 287 330 10,100 1,860 Climbing Miami Center
10:42AM 26.2906 -80.3906 273° West 329 379 11,600 2,220 Climbing Miami Center
10:43AM 26.2917 -80.5156 271° West 366 421 14,600 2,460 Climbing Miami Center
10:44AM 26.3228 -80.6022 292° West 343 395 16,600 2,220 Climbing Miami Center
10:45AM 26.3931 -80.7067 307° West 375 432 19,100 2,100 Climbing Miami Center
10:46AM 26.4514 -80.7944 307° West 387 445 20,900 1,980 Climbing Miami Center
10:47AM 26.5214 -80.9033 306° West 395 455 23,100 1,800 Climbing Miami Center
10:48AM 26.5833 -81.0056 304° West 400 460 24,600 1,380 Climbing Miami Center
10:49AM 26.6453 -81.1006 306° West 406 467 25,900 1,260 Climbing Miami Center
10:50AM 26.7153 -81.2078 306° West 412 474 27,200 1,500 Climbing Miami Center
10:51AM 26.7847 -81.3267 303° West 418 481 28,900 1,800 Climbing Miami Center
10:52AM 26.8481 -81.4336 304° West 418 481 30,800 2,040 Climbing Miami Center
10:53AM 26.8839 -81.5561 288° West 411 473 33,000 2,040 Climbing Miami Center
10:54AM 26.9139 -81.6644 287° West 392 451 34,900 1,500 Climbing Miami Center
10:55AM 26.9433 -81.7753 287° West 375 432 36,000 540 Climbing Miami Center
10:56AM 26.9733 -81.8811 288° West 369 425 36,000  Level Miami Center
10:57AM 27.0050 -81.9897 288° West 364 419 36,000  Level Miami Center
10:58AM 27.0383 -82.1031 288° West 378 435 36,000 -60 Level Miami Center
10:59AM 27.0697 -82.2164 287° West 378 435 35,900 -60 Descending Miami Center
11:00AM 27.0994 -82.3133 289° West 383 441 35,900  Level Miami Center
11:01AM 27.1289 -82.4222 287° West 376 433 36,000  Climbing Miami Center
11:02AM 27.1600 -82.5286 288° West 375 432 36,000  Level Miami Center
11:03AM 27.1886 -82.6514 285° West 363 418 36,000  Level Miami Center
11:04AM 27.2219 -82.7581 289° West 363 418 36,000  Level Miami Center
11:05AM 27.2508 -82.8692 286° West 368 423 36,000  Level Miami Center
11:06AM 27.2817 -82.9783 288° West 368 423 36,000  Level Miami Center
11:07AM 27.3103 -83.0872 286° West 368 423 36,000  Level Miami Center
11:08AM 27.3411 -83.1961 288° West 368 423 36,000  Level Miami Center
11:09AM 27.3694 -83.3078 286° West 368 423 36,000  Level Miami Center
11:10AM 27.4019 -83.4192 288° West 373 429 36,000  Level Miami Center
11:11AM 27.4303 -83.5308 286° West 373 429 36,000  Level Miami Center
11:12AM 27.4606 -83.6400 287° West 368 423 36,000  Level Miami Center
11:13AM 27.4908 -83.7494 287° West 368 423 36,000  Level Miami Center
11:14AM 27.5189 -83.8586 286° West 368 423 36,000  Level Miami Center
11:15AM 27.5447 -83.9703 285° West 368 423 36,000  Level Miami Center
11:16AM 27.5747 -84.0819 287° West 368 423 36,000  Level Miami Center
11:18AM 27.6311 -84.2883 287° West 377 434 36,000  Level Jacksonville Center
11:19AM 27.6633 -84.4014 288° West 377 434 36,000  Level Jacksonville Center
11:20AM 27.6869 -84.5117 284° West 377 434 36,000  Level Jacksonville Center
11:21AM 27.7211 -84.6247 289° West 377 434 36,000  Level Jacksonville Center
11:22AM 27.7467 -84.7356 285° West 377 434 36,000  Level Jacksonville Center
11:23AM 27.7761 -84.8603 285° West 385 443 36,000  Level Jacksonville Center
11:24AM 27.8097 -84.9664 290° West 385 443 36,000  Level Jacksonville Center
11:25AM 27.8392 -85.0844 286° West 380 437 36,000  Level Jacksonville Center
11:26AM 27.8686 -85.1978 286° West 380 437 36,000  Level Jacksonville Center
11:27AM 27.8997 -85.3181 286° West 386 444 36,000  Level Jacksonville Center
11:28AM 27.9350 -85.4317 289° West 386 444 36,000  Level Jacksonville Center
11:29AM 27.9725 -85.5431 291° West 392 451 36,000  Level Jacksonville Center
11:30AM 28.0075 -85.6664 288° West 392 451 36,000  Level Jacksonville Center
11:31AM 28.0425 -85.7731 290° West 386 444 36,000  Level Jacksonville Center
11:32AM 28.0753 -85.8939 287° West 391 450 36,000  Level Jacksonville Center
11:33AM 28.1100 -86.0103 289° West 391 450 36,000  Level Jacksonville Center
11:34AM 28.1447 -86.1242 289° West 391 450 36,000  Level Jacksonville Center
11:35AM 28.1794 -86.2383 289° West 386 444 36,000  Level Jacksonville Center
11:36AM 28.2139 -86.3572 288° West 391 450 36,000  Level Jacksonville Center
11:37AM 28.2483 -86.4739 289° West 385 443 36,000  Level Jacksonville Center
11:38AM 28.2806 -86.5833 289° West 385 443 36,000  Level Jacksonville Center
11:39AM 28.3147 -86.7000 288° West 385 443 36,000  Level Jacksonville Center
11:40AM 28.3489 -86.8169 288° West 385 443 36,000  Level Jacksonville Center
11:41AM 28.3808 -86.9314 288° West 385 443 36,000  Level Jacksonville Center
11:42AM 28.4167 -87.0486 289° West 390 449 36,000  Level Jacksonville Center
11:43AM 28.4522 -87.1703 288° West 390 449 36,000  Level Jacksonville Center
11:44AM 28.4881 -87.2875 289° West 394 453 36,000  Level Jacksonville Center
11:45AM 28.5233 -87.4072 289° West 394 453 36,000  Level Jacksonville Center
11:47AM 28.5931 -87.6636 287° West 400 460 36,000  Level Houston Center
11:48AM 28.6272 -87.7831 288° West 398 458 36,000  Level Houston Center
11:49AM 28.6614 -87.9036 288° West 400 460 36,000  Level Houston Center
11:50AM 28.7153 -88.0433 294° West 405 466 36,000  Level Houston Center
11:51AM 28.7722 -88.1367 305° West 407 468 36,000 -180 Level Houston Center
11:52AM 28.8358 -88.2447 304° West 409 471 35,700 -660 Descending Houston Center
11:53AM 28.9133 -88.3769 304° West 415 478 34,700 -1,140 Descending Houston Center
11:54AM 28.9794 -88.4872 304° West 419 482 33,400 -1,620 Descending Houston Center
11:55AM 29.0442 -88.6000 303° West 423 487 31,400 -1,740 Descending Houston Center
11:56AM 29.1111 -88.7153 304° West 433 498 29,900 -1,200 Descending Houston Center
11:57AM 29.1800 -88.8306 304° West 437 503 29,000 -960 Descending Houston Center
11:58AM 29.2467 -88.9475 303° West 438 504 28,000 -1,980 Descending Houston Center
11:59AM 29.3269 -89.0856 304° West 436 502 25,000 -3,120 Descending Houston Center
12:00PM 29.3925 -89.1981 304° West 427 491 21,600 -3,300 Descending Houston Center
12:01PM 29.4558 -89.3106 303° West 422 486 18,200 -3,120 Descending Houston Center
12:02PM 29.4753 -89.3494 300° West 418 481 17,500 -3,120 Descending Houston Center
12:02PM 29.5042 -89.3983 304° West 411 473 16,100 -2,760 Descending Houston Center
12:02PM 29.5183 -89.4189 308° West 413 475 15,400 -2,880 Descending Houston Center
12:03PM 29.5708 -89.5097 304° West 392 451 12,900 -2,820 Descending Houston Center
12:04PM 29.5769 -89.5231 298° West 394 453 12,500 -1,980 Descending Houston Center
12:04PM 29.6244 -89.6053 304° West 382 440 11,100 -1,500 Descending Houston Center
12:05PM 29.6344 -89.6264 299° West 385 443 11,000 -120 Descending Houston Center
12:05PM 29.6825 -89.7081 304° West 382 440 11,000  Level Houston Center
12:06PM 29.7072 -89.7511 303° West 388 447 11,000 -1,020 Level Houston Center
12:06PM 29.7425 -89.8106 304° West 392 451 10,000 -1,260 Descending Houston Center
12:07PM 29.7664 -89.8536 303° West 387 445 9,700 -300 Descending Houston Center
12:07PM 29.7958 -89.9042 304° West 334 384 9,700 -720 Level Houston Center
12:08PM 29.8169 -89.9367 307° West 328 377 9,000 -1,560 Descending Houston Center
12:08PM 29.8531 -89.9950 306° West 297 342 8,000 -1,500 Descending Houston Center
12:09PM 29.8683 -90.0169 309° West 308 354 7,500 -1,500 Descending Houston Center
12:09PM 29.9036 -90.0722 306° West 300 345 6,500 -1,380 Descending Houston Center
12:10PM 29.9200 -90.0928 313° West 305 351 6,100 -1,380 Descending Houston Center
12:10PM 29.9681 -90.1269 328° Northwest 296 341 5,100 -1,380 Descending Houston Center
12:11PM 29.9892 -90.1356 341° North 300 345 4,700 -1,500 Descending Houston Center
12:11PM 30.0378 -90.1531 343° North 291 335 3,800 -1,800 Descending Houston Center
12:12PM 30.0867 -90.1544 359° North 302 348 2,900 -1,200 Descending Houston Center
12:12PM 30.1192 -90.1544 360° North 291 335 2,600 -720 Descending Houston Center
12:13PM 30.1542 -90.1808 327° Northwest 288 331 2,200 -600 Descending Houston Center
12:13PM 30.1439 -90.2111 249° West 210 242 2,000 -240 Descending Houston Center
12:14PM 30.1186 -90.2100 178° South 233 268 2,000 -120 Level Houston Center
12:14PM 30.0939 -90.2156 191° South 165 190 1,900 -600 Descending Houston Center
12:15PM 30.0750 -90.2233 200° South 191 220 1,400 -900 Descending Houston Center
12:15PM 30.0569 -90.2292 196° South 126 145 1,000 -720 Descending Houston Center
12:16PM 30.0400 -90.2347 196° South 156 180 700 -540 Descending Houston Center
12:16PM 30.0194 -90.2403 193° South 137 158 500 -240 Descending Houston Center
12:17PM 29.9967 -90.2489 198° South 149 171 500  Level Houston Center